Siros, Greece
Current Conditions -  °F | °C
As of 10:50 AM on Thursday 29 Jan 2015 (Local Time) from LGMK Reporting Station
Light Rain Light Rain  
Wind Chill: 52°   Ceiling: 2000
Heat Index: 52°   Visibility: 4mi
Dew Point: 50°   Wind: 7mph
Humidity: 94%   Direction: 240°WSW
Pressure: 29.71"   Gusts: NA
Location:  37.45°N, 24.93°E
Report Text: LGMK 290750Z 24006KT 6000 -RA FEW008 FEW016TCU BKN020 11/10 Q1006
Loading
Personal Weather Stations






























Interactive Weather Map New forecast layout! Learn more

10-Day Weather Forecast

Advertisements
Track Severe Weather on mobile